createdAt,value
2023-05-16T00:00:25.746Z,29.10
2023-05-16T00:02:43.291Z,23.17
2023-05-16T00:05:00.427Z,26.88
2023-05-16T00:07:18.528Z,26.13
2023-05-16T00:09:35.525Z,23.35
2023-05-16T00:11:52.864Z,23.95
2023-05-16T00:14:10.155Z,25.65
2023-05-16T00:16:27.478Z,26.88
2023-05-16T00:18:44.787Z,21.92
2023-05-16T00:21:03.005Z,25.35
2023-05-16T00:23:20.345Z,24.27
2023-05-16T00:25:38.579Z,19.73
2023-05-16T00:27:56.263Z,20.13
2023-05-16T00:30:13.484Z,25.25
2023-05-16T00:32:30.803Z,23.92
2023-05-16T00:34:48.239Z,18.75
2023-05-16T00:37:05.635Z,19.52
2023-05-16T00:39:22.899Z,18.63
2023-05-16T00:41:40.149Z,19.55
2023-05-16T00:43:57.759Z,21.55
2023-05-16T00:46:14.735Z,16.60
2023-05-16T00:48:32.132Z,17.55
2023-05-16T00:50:50.045Z,16.63
2023-05-16T00:53:07.357Z,14.32
2023-05-16T00:55:24.636Z,14.20
2023-05-16T00:57:41.887Z,16.23
2023-05-16T00:59:59.521Z,14.32
2023-05-16T01:02:16.901Z,16.42
2023-05-16T01:04:34.199Z,14.45
2023-05-16T01:06:51.510Z,13.30
2023-05-16T01:09:08.776Z,13.52
2023-05-16T01:11:26.332Z,15.80
2023-05-16T01:13:43.950Z,13.77
2023-05-16T01:16:01.246Z,14.50
2023-05-16T01:18:18.942Z,14.65
2023-05-16T01:20:36.269Z,14.50
2023-05-16T01:22:53.564Z,13.60
2023-05-16T01:25:10.559Z,13.80
2023-05-16T01:27:29.780Z,13.68
2023-05-16T01:29:47.033Z,12.88
2023-05-16T01:32:04.392Z,12.85
2023-05-16T01:34:21.316Z,14.20
2023-05-16T01:36:38.614Z,15.25
2023-05-16T01:38:56.752Z,16.83
2023-05-16T01:41:14.057Z,15.27
2023-05-16T01:43:31.381Z,16.38
2023-05-16T01:45:48.640Z,15.98
2023-05-16T01:48:06.420Z,16.73
2023-05-16T01:50:23.915Z,15.82
2023-05-16T01:52:43.145Z,13.48
2023-05-16T01:55:00.979Z,18.30
2023-05-16T01:57:18.327Z,15.63
2023-05-16T01:59:36.673Z,15.60
2023-05-16T02:01:54.376Z,16.92
2023-05-16T02:04:12.169Z,16.98
2023-05-16T02:06:29.442Z,14.43
2023-05-16T02:08:46.743Z,15.98
2023-05-16T02:11:04.746Z,14.63
2023-05-16T02:13:22.066Z,15.88
2023-05-16T02:15:39.702Z,13.93
2023-05-16T02:17:58.075Z,16.23
2023-05-16T02:20:15.361Z,15.05
2023-05-16T02:22:32.625Z,15.40
2023-05-16T02:24:50.967Z,15.07
2023-05-16T02:27:08.336Z,19.23
2023-05-16T02:29:25.605Z,15.18
2023-05-16T02:31:43.901Z,18.23
2023-05-16T02:34:01.296Z,16.90
2023-05-16T02:36:18.493Z,12.20
2023-05-16T02:38:37.053Z,15.10
2023-05-16T02:40:54.296Z,13.77
2023-05-16T02:43:11.624Z,15.30
2023-05-16T02:45:28.785Z,13.82
2023-05-16T02:47:46.254Z,13.38
2023-05-16T02:50:03.237Z,12.50
2023-05-16T02:52:20.559Z,11.85
2023-05-16T02:54:38.909Z,11.65
2023-05-16T02:56:55.844Z,11.48
2023-05-16T02:59:14.181Z,12.93
2023-05-16T03:01:31.501Z,9.38
2023-05-16T03:03:49.858Z,12.65
2023-05-16T03:06:07.332Z,14.27
2023-05-16T03:08:25.015Z,12.90
2023-05-16T03:10:42.402Z,10.50
2023-05-16T03:12:59.795Z,10.63
2023-05-16T03:15:17.030Z,11.25
2023-05-16T03:17:34.377Z,11.27
2023-05-16T03:19:52.093Z,8.18
2023-05-16T03:22:09.443Z,9.35
2023-05-16T03:24:27.173Z,8.65
2023-05-16T03:26:44.606Z,7.82
2023-05-16T03:29:01.670Z,7.75
2023-05-16T03:31:19.346Z,9.88
2023-05-16T03:33:37.715Z,4.53
2023-05-16T03:35:54.962Z,7.07
2023-05-16T03:38:12.243Z,3.63
2023-05-16T03:40:29.634Z,4.63
2023-05-16T03:42:47.313Z,2.65
2023-05-16T03:45:05.494Z,3.20
2023-05-16T03:47:22.396Z,2.00
2023-05-16T03:49:39.624Z,3.72
2023-05-16T03:51:56.917Z,2.13
2023-05-16T03:54:13.832Z,2.03
2023-05-16T03:56:31.070Z,1.60
2023-05-16T03:58:48.327Z,1.48
2023-05-16T04:01:05.577Z,2.45
2023-05-16T04:03:23.452Z,3.47
2023-05-16T04:05:40.489Z,3.00
2023-05-16T04:07:57.830Z,1.50
2023-05-16T04:10:15.105Z,2.53
2023-05-16T04:12:32.314Z,6.35
2023-05-16T04:14:49.551Z,2.47
2023-05-16T04:17:06.932Z,3.90
2023-05-16T04:19:24.168Z,2.33
2023-05-16T04:21:41.504Z,3.70
2023-05-16T04:23:58.415Z,1.73
2023-05-16T04:26:15.683Z,1.52
2023-05-16T04:28:32.979Z,2.00
2023-05-16T04:30:52.371Z,3.40
2023-05-16T04:33:09.685Z,3.28
2023-05-16T04:35:27.166Z,2.70
2023-05-16T04:37:44.891Z,1.60
2023-05-16T04:40:02.193Z,2.22
2023-05-16T04:42:20.095Z,2.63
2023-05-16T04:44:37.375Z,4.90
2023-05-16T04:46:54.776Z,2.17
2023-05-16T04:49:13.110Z,1.83
2023-05-16T04:51:30.131Z,3.38
2023-05-16T04:53:47.469Z,3.30
2023-05-16T04:56:04.302Z,1.90
2023-05-16T04:58:21.543Z,2.17
2023-05-16T05:00:38.799Z,2.72
2023-05-16T05:02:56.547Z,2.03
2023-05-16T05:05:13.905Z,2.13
2023-05-16T05:07:31.236Z,1.58
2023-05-16T05:09:48.717Z,1.60
2023-05-16T05:12:05.662Z,5.00
2023-05-16T05:14:23.227Z,2.08
2023-05-16T05:16:40.640Z,3.58
2023-05-16T05:18:57.967Z,1.95
2023-05-16T05:21:15.336Z,3.30
2023-05-16T05:23:33.569Z,2.38
2023-05-16T05:25:51.252Z,3.78
2023-05-16T05:28:08.554Z,1.75
2023-05-16T05:30:25.465Z,3.33
2023-05-16T05:32:42.721Z,4.05
2023-05-16T05:35:02.943Z,3.15
2023-05-16T05:37:20.191Z,2.50
2023-05-16T05:39:37.516Z,1.95
2023-05-16T05:41:54.827Z,1.80
2023-05-16T05:44:13.089Z,2.20
2023-05-16T05:46:30.463Z,2.55
2023-05-16T05:48:47.822Z,3.88
2023-05-16T05:51:05.163Z,1.83
2023-05-16T05:53:22.399Z,1.98
2023-05-16T05:55:39.701Z,3.38
2023-05-16T05:57:57.000Z,1.77
2023-05-16T06:00:14.625Z,1.58
2023-05-16T06:02:32.020Z,1.80
2023-05-16T06:04:49.366Z,1.73
2023-05-16T06:07:06.800Z,2.38
2023-05-16T06:09:24.001Z,1.58
2023-05-16T06:11:41.228Z,1.73
2023-05-16T06:13:58.520Z,1.58
2023-05-16T06:16:15.839Z,3.08
2023-05-16T06:18:33.179Z,3.92
2023-05-16T06:20:50.549Z,6.90
2023-05-16T06:23:07.874Z,3.30
2023-05-16T06:25:25.368Z,2.38
2023-05-16T06:27:43.789Z,3.53
2023-05-16T06:30:01.074Z,3.70
2023-05-16T06:32:17.988Z,3.25
2023-05-16T06:34:34.974Z,2.03
2023-05-16T06:36:51.883Z,2.85
2023-05-16T06:39:09.165Z,3.97
2023-05-16T06:41:26.506Z,6.50
2023-05-16T06:43:43.843Z,5.72
2023-05-16T06:46:00.911Z,4.25
2023-05-16T06:48:18.367Z,10.75
2023-05-16T06:50:35.748Z,6.82
2023-05-16T06:52:52.970Z,7.25
2023-05-16T06:55:10.265Z,4.63
2023-05-16T06:57:27.979Z,3.58
2023-05-16T06:59:45.273Z,4.90
2023-05-16T07:02:02.673Z,3.00
2023-05-16T07:04:20.042Z,2.78
2023-05-16T07:06:37.354Z,3.55
2023-05-16T07:08:54.617Z,3.55
2023-05-16T07:11:12.034Z,3.95
2023-05-16T07:13:29.790Z,3.72
2023-05-16T07:15:47.891Z,2.65
2023-05-16T07:18:05.320Z,6.95
2023-05-16T07:20:22.701Z,6.40
2023-05-16T07:22:40.042Z,12.75
2023-05-16T07:24:57.719Z,14.55
2023-05-16T07:27:15.977Z,8.00
2023-05-16T07:29:33.110Z,6.80
2023-05-16T07:31:50.432Z,8.15
2023-05-16T07:34:08.379Z,7.88
2023-05-16T07:36:25.527Z,5.90
2023-05-16T07:38:42.600Z,5.25
2023-05-16T07:40:59.910Z,7.32
2023-05-16T07:43:18.144Z,5.90
2023-05-16T07:45:35.373Z,3.90
2023-05-16T07:47:52.811Z,4.32
2023-05-16T07:50:10.229Z,5.13
2023-05-16T07:52:28.478Z,3.90
2023-05-16T07:54:45.747Z,2.50
2023-05-16T07:57:03.091Z,2.67
2023-05-16T07:59:20.398Z,2.58
2023-05-16T08:01:38.772Z,4.18
2023-05-16T08:03:55.955Z,3.42
2023-05-16T08:06:16.235Z,4.28
2023-05-16T08:08:33.581Z,5.72
2023-05-16T08:10:50.956Z,4.85
2023-05-16T08:13:08.245Z,4.60
2023-05-16T08:15:25.739Z,4.68
2023-05-16T08:17:43.183Z,4.45
2023-05-16T08:20:00.604Z,7.97
2023-05-16T08:22:17.544Z,7.57
2023-05-16T08:24:35.069Z,8.00
2023-05-16T08:26:53.372Z,9.20
2023-05-16T08:29:10.737Z,9.02
2023-05-16T08:31:28.022Z,10.75
2023-05-16T08:33:45.341Z,10.90
2023-05-16T08:36:03.669Z,13.05
2023-05-16T08:38:21.020Z,16.35
2023-05-16T08:40:38.282Z,17.45
2023-05-16T08:42:55.172Z,13.35
2023-05-16T08:45:12.533Z,21.30
2023-05-16T08:47:30.524Z,15.68
2023-05-16T08:49:48.965Z,11.40
2023-05-16T08:52:06.353Z,9.57
2023-05-16T08:54:24.537Z,13.27
2023-05-16T08:56:42.650Z,14.75
2023-05-16T08:59:01.287Z,10.75
2023-05-16T09:01:18.732Z,14.20
2023-05-16T09:03:35.947Z,10.35
2023-05-16T09:05:53.358Z,11.05
2023-05-16T09:08:10.761Z,14.75
2023-05-16T09:10:30.539Z,12.18
2023-05-16T09:12:48.272Z,13.63
2023-05-16T09:15:05.609Z,9.57
2023-05-16T09:17:32.198Z,9.05
2023-05-16T09:19:56.017Z,9.73
2023-05-16T09:22:15.624Z,10.52
2023-05-16T09:24:32.710Z,10.52
2023-05-16T09:26:50.003Z,8.07
2023-05-16T09:29:07.766Z,11.43
2023-05-16T09:31:25.290Z,11.68
2023-05-16T09:33:42.673Z,10.60
2023-05-16T09:36:01.030Z,8.52
2023-05-16T09:38:18.441Z,7.22
2023-05-16T09:40:35.425Z,8.85
2023-05-16T09:42:52.568Z,9.70
2023-05-16T09:45:09.857Z,10.80
2023-05-16T09:47:27.162Z,10.30
2023-05-16T09:49:44.570Z,6.30
2023-05-16T09:52:01.898Z,7.07
2023-05-16T09:54:19.180Z,11.20
2023-05-16T09:56:36.588Z,12.32
2023-05-16T09:58:53.721Z,7.68
2023-05-16T10:01:11.106Z,9.18
2023-05-16T10:03:29.634Z,9.52
2023-05-16T10:05:47.893Z,8.88
2023-05-16T10:08:07.586Z,8.63
2023-05-16T10:10:24.957Z,9.80
2023-05-16T10:12:42.363Z,11.60
2023-05-16T10:14:59.787Z,6.03
2023-05-16T10:17:17.180Z,8.90
2023-05-16T10:19:34.553Z,5.50
2023-05-16T10:21:52.301Z,8.45
2023-05-16T10:24:09.665Z,9.48
2023-05-16T10:26:26.602Z,10.43
2023-05-16T10:28:43.606Z,10.73
2023-05-16T10:31:00.983Z,9.27
2023-05-16T10:33:18.145Z,12.93
2023-05-16T10:35:35.517Z,6.95
2023-05-16T10:37:53.025Z,6.20
2023-05-16T10:40:10.347Z,7.70
2023-05-16T10:42:27.626Z,9.23
2023-05-16T10:44:54.469Z,5.95
2023-05-16T10:47:16.039Z,6.75
2023-05-16T10:49:35.874Z,10.02
2023-05-16T10:51:54.221Z,10.35
2023-05-16T10:54:11.554Z,4.55
2023-05-16T10:56:29.301Z,6.00
2023-05-16T10:58:47.074Z,7.82
2023-05-16T11:01:04.677Z,7.18
2023-05-16T11:03:22.109Z,8.10
2023-05-16T11:05:39.497Z,5.80
2023-05-16T11:07:57.203Z,6.32
2023-05-16T11:10:15.006Z,5.88
2023-05-16T11:12:33.545Z,4.78
2023-05-16T11:14:51.218Z,9.25
2023-05-16T11:17:08.674Z,7.07
2023-05-16T11:19:26.146Z,6.22
2023-05-16T11:21:43.601Z,4.15
2023-05-16T11:24:00.988Z,6.40
2023-05-16T11:26:18.686Z,4.72
2023-05-16T11:28:35.646Z,5.35
2023-05-16T11:30:52.913Z,4.13
2023-05-16T11:33:10.294Z,5.43
2023-05-16T11:35:28.168Z,6.80
2023-05-16T11:37:45.550Z,7.18
2023-05-16T11:40:02.959Z,5.13
2023-05-16T11:42:20.324Z,6.78
2023-05-16T11:44:37.322Z,5.47
2023-05-16T11:46:54.632Z,6.88
2023-05-16T11:49:11.970Z,6.30
2023-05-16T11:51:29.350Z,6.18
2023-05-16T11:53:47.630Z,6.20
2023-05-16T11:56:04.626Z,3.88
2023-05-16T11:58:22.039Z,11.52
2023-05-16T12:00:39.027Z,5.95
2023-05-16T12:02:57.452Z,4.95
2023-05-16T12:05:15.343Z,4.63
2023-05-16T12:07:32.732Z,3.35
2023-05-16T12:09:50.442Z,4.88
2023-05-16T12:12:08.704Z,4.38
2023-05-16T12:14:26.424Z,7.15
2023-05-16T12:16:43.480Z,8.82
2023-05-16T12:19:01.849Z,5.13
2023-05-16T12:21:19.247Z,5.90
2023-05-16T12:23:36.279Z,4.75
2023-05-16T12:25:54.551Z,6.68
2023-05-16T12:28:11.883Z,5.47
2023-05-16T12:30:29.521Z,4.88
2023-05-16T12:32:48.075Z,6.00
2023-05-16T12:35:06.598Z,6.57
2023-05-16T12:37:23.874Z,10.50
2023-05-16T12:39:41.226Z,11.88
2023-05-16T12:41:59.209Z,5.38
2023-05-16T12:44:16.421Z,5.38
2023-05-16T12:46:33.840Z,5.45
2023-05-16T12:48:51.538Z,3.90
2023-05-16T12:51:08.505Z,4.55
2023-05-16T12:53:25.771Z,5.53
2023-05-16T12:55:43.133Z,3.42
2023-05-16T12:58:00.576Z,5.28
2023-05-16T13:00:18.018Z,4.90
2023-05-16T13:02:36.396Z,6.57
2023-05-16T13:04:53.794Z,7.53
2023-05-16T13:07:11.138Z,4.65
2023-05-16T13:09:32.160Z,5.90
2023-05-16T13:11:51.599Z,5.07
2023-05-16T13:14:09.887Z,3.60
2023-05-16T13:16:27.221Z,7.75
2023-05-16T13:18:44.678Z,5.53
2023-05-16T13:21:02.278Z,4.43
2023-05-16T13:23:19.700Z,5.55
2023-05-16T13:25:38.215Z,3.00
2023-05-16T13:27:56.026Z,4.40
2023-05-16T13:30:13.289Z,4.22
2023-05-16T13:32:30.636Z,3.65
2023-05-16T13:34:47.949Z,4.57
2023-05-16T13:37:05.319Z,3.95
2023-05-16T13:39:22.424Z,7.13
2023-05-16T13:41:39.799Z,9.00
2023-05-16T13:43:57.134Z,7.18
2023-05-16T13:46:14.591Z,5.78
2023-05-16T13:48:32.412Z,6.53
2023-05-16T13:50:49.951Z,4.88
2023-05-16T13:53:07.341Z,3.20
2023-05-16T13:55:24.666Z,6.22
2023-05-16T13:57:42.035Z,6.35
2023-05-16T14:00:27.499Z,6.70
2023-05-16T14:02:36.363Z,6.43
2023-05-16T14:04:54.695Z,7.38
2023-05-16T14:07:11.999Z,4.70
2023-05-16T14:09:29.751Z,2.72
2023-05-16T14:11:46.745Z,5.70
2023-05-16T14:14:04.120Z,6.65
2023-05-16T14:16:22.420Z,6.07
2023-05-16T14:18:39.931Z,4.80
2023-05-16T14:20:57.861Z,4.25
2023-05-16T14:23:15.169Z,8.07
2023-05-16T14:25:33.430Z,3.83
2023-05-16T14:27:50.714Z,5.95
2023-05-16T14:30:08.822Z,4.00
2023-05-16T14:32:26.030Z,4.47
2023-05-16T14:34:44.456Z,5.10
2023-05-16T14:37:05.660Z,4.30
2023-05-16T14:39:22.820Z,4.75
2023-05-16T14:41:44.648Z,6.05
2023-05-16T14:44:02.070Z,5.70
2023-05-16T14:46:19.370Z,3.88
2023-05-16T14:48:36.728Z,4.35
2023-05-16T14:50:54.147Z,6.43
2023-05-16T14:53:11.432Z,5.88
2023-05-16T14:55:29.409Z,6.07
2023-05-16T14:57:46.813Z,6.90
2023-05-16T15:00:04.699Z,4.30
2023-05-16T15:02:22.013Z,5.80
2023-05-16T15:04:39.365Z,5.85
2023-05-16T15:06:57.395Z,4.45
2023-05-16T15:09:14.723Z,3.03
2023-05-16T15:11:32.056Z,5.20
2023-05-16T15:13:49.105Z,4.95
2023-05-16T15:16:10.356Z,3.17
2023-05-16T15:18:27.548Z,6.57
2023-05-16T15:20:44.464Z,4.80
2023-05-16T15:23:01.540Z,6.32
2023-05-16T15:25:18.918Z,4.40
2023-05-16T15:27:39.063Z,5.07
2023-05-16T15:29:56.424Z,5.32
2023-05-16T15:32:13.676Z,4.95
2023-05-16T15:34:30.672Z,4.40
2023-05-16T15:36:47.678Z,4.28
2023-05-16T15:39:05.020Z,5.60
2023-05-16T15:41:36.839Z,4.68
2023-05-16T15:43:59.642Z,4.88
2023-05-16T15:46:17.716Z,4.25
2023-05-16T15:48:34.803Z,4.47
2023-05-16T15:50:52.195Z,3.67
2023-05-16T15:53:09.516Z,5.60
2023-05-16T15:55:27.935Z,5.70
2023-05-16T15:57:45.899Z,6.50
2023-05-16T16:00:03.411Z,1.95
2023-05-16T16:02:22.174Z,4.10
2023-05-16T16:04:39.592Z,4.53
2023-05-16T16:06:56.924Z,4.00
2023-05-16T16:09:13.959Z,6.05
2023-05-16T16:11:30.993Z,4.40
2023-05-16T16:13:48.070Z,4.22
2023-05-16T16:16:05.406Z,5.03
2023-05-16T16:18:22.425Z,6.72
2023-05-16T16:20:39.678Z,4.90
2023-05-16T16:22:57.988Z,6.10
2023-05-16T16:25:15.358Z,5.68
2023-05-16T16:27:32.650Z,6.05
2023-05-16T16:29:49.599Z,5.40
2023-05-16T16:32:06.597Z,6.05
2023-05-16T16:34:23.557Z,5.22
2023-05-16T16:36:40.821Z,7.28
2023-05-16T16:38:57.777Z,4.25
2023-05-16T16:41:16.266Z,4.43
2023-05-16T16:43:33.792Z,5.50
2023-05-16T16:45:51.120Z,3.33
2023-05-16T16:48:08.471Z,3.83
2023-05-16T16:50:25.865Z,5.65
2023-05-16T16:52:43.307Z,3.35
2023-05-16T16:55:00.635Z,3.40
2023-05-16T16:57:18.017Z,4.57
2023-05-16T16:59:34.990Z,2.38
2023-05-16T17:01:52.375Z,7.47
2023-05-16T17:04:09.762Z,5.65
2023-05-16T17:06:27.142Z,6.82
2023-05-16T17:08:44.480Z,5.10
2023-05-16T17:11:02.679Z,4.43
2023-05-16T17:13:20.450Z,5.63
2023-05-16T17:15:38.036Z,3.88
2023-05-16T17:17:55.350Z,3.20
2023-05-16T17:20:12.817Z,3.28
2023-05-16T17:22:30.251Z,2.00
2023-05-16T17:24:47.529Z,2.92
2023-05-16T17:27:04.813Z,3.60
2023-05-16T17:29:21.760Z,4.13
2023-05-16T17:31:39.068Z,2.80
2023-05-16T17:33:56.046Z,4.20
2023-05-16T17:36:13.394Z,2.97
2023-05-16T17:38:30.679Z,1.95
2023-05-16T17:40:47.997Z,2.50
2023-05-16T17:43:05.284Z,3.03
2023-05-16T17:45:22.174Z,3.92
2023-05-16T17:47:39.534Z,21.52
2023-05-16T17:49:57.085Z,18.08
2023-05-16T17:52:14.257Z,7.90
2023-05-16T17:54:31.649Z,5.22
2023-05-16T17:56:48.956Z,3.08
2023-05-16T17:59:06.303Z,3.03
2023-05-16T18:01:23.737Z,4.72
2023-05-16T18:03:42.115Z,4.05
2023-05-16T18:06:02.480Z,3.65
2023-05-16T18:08:19.836Z,3.35
2023-05-16T18:10:50.330Z,3.10
2023-05-16T18:13:08.758Z,4.85
2023-05-16T18:15:26.130Z,2.38
2023-05-16T18:17:43.645Z,4.32
2023-05-16T18:20:00.778Z,3.20
2023-05-16T18:22:17.861Z,4.47
2023-05-16T18:24:35.217Z,5.32
2023-05-16T18:26:52.652Z,2.03
2023-05-16T18:29:09.679Z,4.35
2023-05-16T18:31:26.991Z,3.72
2023-05-16T18:33:44.305Z,3.55
2023-05-16T18:36:01.636Z,4.90
2023-05-16T18:38:31.378Z,6.53
2023-05-16T18:40:49.688Z,2.38
2023-05-16T18:43:08.015Z,3.25
2023-05-16T18:45:25.434Z,3.70
2023-05-16T18:47:42.891Z,3.67
2023-05-16T18:50:00.179Z,4.43
2023-05-16T18:52:17.498Z,4.35
2023-05-16T18:54:34.979Z,6.50
2023-05-16T18:56:53.030Z,5.13
2023-05-16T18:59:10.054Z,4.53
2023-05-16T19:01:27.402Z,4.80
2023-05-16T19:03:44.859Z,3.42
2023-05-16T19:06:02.154Z,4.75
2023-05-16T19:08:19.107Z,5.32
2023-05-16T19:10:36.422Z,4.57
2023-05-16T19:12:53.766Z,4.47
2023-05-16T19:15:10.694Z,4.72
2023-05-16T19:17:28.097Z,17.30
2023-05-16T19:19:46.440Z,18.00
2023-05-16T19:22:03.535Z,23.02
2023-05-16T19:24:20.842Z,34.72
2023-05-16T19:26:38.202Z,12.88
2023-05-16T19:28:55.523Z,13.95
2023-05-16T19:31:12.806Z,8.95
2023-05-16T19:33:30.099Z,5.55
2023-05-16T19:35:47.465Z,7.25
2023-05-16T19:38:04.547Z,5.28
2023-05-16T19:40:21.848Z,3.78
2023-05-16T19:42:38.874Z,3.97
2023-05-16T19:44:56.247Z,3.92
2023-05-16T19:47:13.603Z,5.47
2023-05-16T19:49:30.933Z,5.10
2023-05-16T19:51:48.323Z,6.72
2023-05-16T19:54:06.108Z,8.15
2023-05-16T19:56:23.434Z,4.22
2023-05-16T19:58:40.824Z,5.72
2023-05-16T20:00:58.544Z,4.82
2023-05-16T20:03:15.767Z,4.82
2023-05-16T20:05:32.876Z,5.45
2023-05-16T20:07:49.822Z,6.35
2023-05-16T20:10:07.135Z,4.45
2023-05-16T20:12:24.576Z,5.03
2023-05-16T20:14:42.489Z,6.88
2023-05-16T20:16:59.583Z,5.78
2023-05-16T20:19:17.019Z,4.65
2023-05-16T20:21:34.075Z,8.32
2023-05-16T20:23:51.036Z,7.63
2023-05-16T20:26:08.980Z,6.97
2023-05-16T20:28:25.913Z,5.80
2023-05-16T20:30:42.840Z,6.10
2023-05-16T20:33:00.043Z,7.43
2023-05-16T20:35:17.422Z,8.32
2023-05-16T20:37:34.497Z,8.73
2023-05-16T20:39:51.883Z,8.43
2023-05-16T20:42:09.191Z,8.13
2023-05-16T20:44:26.498Z,6.15
2023-05-16T20:46:43.860Z,5.50
2023-05-16T20:49:00.994Z,9.35
2023-05-16T20:51:18.133Z,8.43
2023-05-16T20:53:35.519Z,5.65
2023-05-16T20:55:53.254Z,6.53
2023-05-16T20:58:10.583Z,8.05
2023-05-16T21:00:27.898Z,5.97
2023-05-16T21:02:45.905Z,8.60
2023-05-16T21:05:19.652Z,5.47
2023-05-16T21:07:41.099Z,7.18
2023-05-16T21:09:58.352Z,5.15
2023-05-16T21:12:15.299Z,5.75
2023-05-16T21:14:32.586Z,6.22
2023-05-16T21:16:49.520Z,6.88
2023-05-16T21:19:06.995Z,4.22
2023-05-16T21:21:24.355Z,8.23
2023-05-16T21:23:41.291Z,4.85
2023-05-16T21:25:58.673Z,5.18
2023-05-16T21:28:16.051Z,5.55
2023-05-16T21:30:33.322Z,5.50
2023-05-16T21:32:50.662Z,6.05
2023-05-16T21:35:09.204Z,4.45
2023-05-16T21:37:26.680Z,3.13
2023-05-16T21:39:43.603Z,5.25
2023-05-16T21:42:00.954Z,5.28
2023-05-16T21:44:18.070Z,7.35
2023-05-16T21:46:35.387Z,7.65
2023-05-16T21:48:52.785Z,6.60
2023-05-16T21:51:09.790Z,7.70
2023-05-16T21:53:27.158Z,6.32
2023-05-16T21:55:44.816Z,6.13
2023-05-16T21:58:01.880Z,6.90
2023-05-16T22:00:19.233Z,5.82
2023-05-16T22:02:36.504Z,5.80
2023-05-16T22:04:57.945Z,5.07
2023-05-16T22:07:16.454Z,8.35
2023-05-16T22:09:33.823Z,8.15
2023-05-16T22:11:50.833Z,5.43
2023-05-16T22:14:08.329Z,4.75
2023-05-16T22:16:25.330Z,5.65
2023-05-16T22:18:42.974Z,6.63
2023-05-16T22:21:00.109Z,6.78
2023-05-16T22:23:17.440Z,7.72
2023-05-16T22:25:36.872Z,12.52
2023-05-16T22:27:54.245Z,5.93
2023-05-16T22:30:13.736Z,7.20
2023-05-16T22:32:32.143Z,7.90
2023-05-16T22:34:50.576Z,8.05
2023-05-16T22:37:08.031Z,6.38
2023-05-16T22:39:25.450Z,5.80
2023-05-16T22:41:42.776Z,6.07
2023-05-16T22:43:59.767Z,8.02
2023-05-16T22:46:17.024Z,6.57
2023-05-16T22:48:34.493Z,7.95
2023-05-16T22:50:52.036Z,7.18
2023-05-16T22:53:11.460Z,7.47
2023-05-16T22:55:29.635Z,9.70
2023-05-16T22:57:46.922Z,4.90
2023-05-16T23:00:03.902Z,9.43
2023-05-16T23:02:21.508Z,6.65
2023-05-16T23:04:38.955Z,6.70
2023-05-16T23:06:56.415Z,7.85
2023-05-16T23:09:13.546Z,7.05
2023-05-16T23:11:30.877Z,6.60
2023-05-16T23:13:48.190Z,6.15
2023-05-16T23:16:05.561Z,4.63
2023-05-16T23:18:22.905Z,7.05
2023-05-16T23:20:40.682Z,5.53
2023-05-16T23:22:57.750Z,6.85
2023-05-16T23:25:15.045Z,6.47
2023-05-16T23:27:31.979Z,7.22
2023-05-16T23:29:48.932Z,5.75
2023-05-16T23:32:05.891Z,5.05
2023-05-16T23:34:23.240Z,7.45
2023-05-16T23:36:40.576Z,8.00
2023-05-16T23:38:57.946Z,7.15
2023-05-16T23:41:16.570Z,6.00
2023-05-16T23:43:33.877Z,6.78
2023-05-16T23:45:51.120Z,5.80
2023-05-16T23:48:08.433Z,5.07
2023-05-16T23:50:25.844Z,7.18
2023-05-16T23:52:43.285Z,4.45
2023-05-16T23:55:00.252Z,5.72
2023-05-16T23:57:17.661Z,9.05
2023-05-16T23:59:34.607Z,4.35
